createdAt,value
2023-04-16T00:01:06.945Z,13.55
2023-04-16T00:03:34.041Z,12.15
2023-04-16T00:06:01.211Z,10.68
2023-04-16T00:08:28.086Z,12.75
2023-04-16T00:10:54.964Z,11.57
2023-04-16T00:13:22.727Z,14.82
2023-04-16T00:15:49.653Z,13.07
2023-04-16T00:18:16.525Z,11.20
2023-04-16T00:20:43.357Z,10.02
2023-04-16T00:23:10.262Z,12.60
2023-04-16T00:25:37.074Z,10.77
2023-04-16T00:28:05.628Z,13.32
2023-04-16T00:30:32.506Z,9.85
2023-04-16T00:32:59.908Z,12.27
2023-04-16T00:35:27.132Z,14.65
2023-04-16T00:37:54.039Z,13.10
2023-04-16T00:40:20.986Z,10.50
2023-04-16T00:42:48.211Z,14.23
2023-04-16T00:45:15.178Z,9.93
2023-04-16T00:47:42.686Z,15.13
2023-04-16T00:50:10.632Z,14.82
2023-04-16T00:52:38.631Z,11.25
2023-04-16T00:55:07.840Z,10.32
2023-04-16T00:57:35.062Z,12.05
2023-04-16T01:00:02.889Z,10.95
2023-04-16T01:02:29.875Z,12.48
2023-04-16T01:04:56.994Z,12.45
2023-04-16T01:07:23.843Z,16.23
2023-04-16T01:09:50.817Z,12.85
2023-04-16T01:12:17.607Z,10.05
2023-04-16T01:14:44.506Z,10.07
2023-04-16T01:17:11.889Z,13.07
2023-04-16T01:19:38.777Z,14.73
2023-04-16T01:22:06.297Z,9.68
2023-04-16T01:24:35.953Z,15.68
2023-04-16T01:27:03.687Z,12.23
2023-04-16T01:29:31.205Z,15.18
2023-04-16T01:31:59.683Z,11.45
2023-04-16T01:34:31.243Z,16.60
2023-04-16T01:36:58.440Z,14.10
2023-04-16T01:39:25.386Z,19.52
2023-04-16T01:41:52.368Z,16.25
2023-04-16T01:44:19.207Z,11.80
2023-04-16T01:46:46.467Z,16.45
2023-04-16T01:49:13.906Z,16.13
2023-04-16T01:51:41.130Z,18.33
2023-04-16T01:54:08.276Z,11.27
2023-04-16T01:56:35.386Z,12.05
2023-04-16T01:59:02.848Z,12.95
2023-04-16T02:01:35.686Z,11.23
2023-04-16T02:04:03.128Z,13.60
2023-04-16T02:06:30.725Z,13.63
2023-04-16T02:08:57.585Z,14.98
2023-04-16T02:11:26.667Z,11.75
2023-04-16T02:13:54.345Z,12.00
2023-04-16T02:16:21.332Z,12.70
2023-04-16T02:19:00.113Z,14.13
2023-04-16T02:21:31.800Z,11.15
2023-04-16T02:23:58.713Z,11.35
2023-04-16T02:26:29.852Z,16.27
2023-04-16T02:29:02.069Z,15.20
2023-04-16T02:31:37.834Z,14.75
2023-04-16T02:34:05.461Z,10.63
2023-04-16T02:36:33.293Z,13.07
2023-04-16T02:39:00.193Z,15.18
2023-04-16T02:41:27.017Z,13.70
2023-04-16T02:43:53.945Z,13.80
2023-04-16T02:46:20.983Z,15.70
2023-04-16T02:48:47.969Z,13.63
2023-04-16T02:51:14.911Z,13.23
2023-04-16T02:53:46.062Z,11.98
2023-04-16T02:56:13.728Z,10.05
2023-04-16T02:58:40.805Z,11.90
2023-04-16T03:01:10.467Z,13.25
2023-04-16T03:03:37.432Z,14.07
2023-04-16T03:06:04.463Z,11.48
2023-04-16T03:08:31.359Z,14.50
2023-04-16T03:10:58.265Z,13.18
2023-04-16T03:13:25.270Z,16.50
2023-04-16T03:15:52.194Z,11.02
2023-04-16T03:18:19.084Z,14.65
2023-04-16T03:20:46.143Z,10.10
2023-04-16T03:23:13.134Z,14.50
2023-04-16T03:25:40.794Z,13.52
2023-04-16T03:28:11.029Z,11.45
2023-04-16T03:30:38.930Z,13.00
2023-04-16T03:33:06.987Z,12.48
2023-04-16T03:35:33.941Z,15.82
2023-04-16T03:38:01.560Z,17.08
2023-04-16T03:40:29.135Z,17.73
2023-04-16T03:42:56.419Z,14.70
2023-04-16T03:45:23.266Z,10.43
2023-04-16T03:47:52.846Z,14.77
2023-04-16T03:50:22.663Z,10.43
2023-04-16T03:52:49.547Z,11.40
2023-04-16T03:55:17.874Z,12.32
2023-04-16T03:57:45.685Z,14.52
2023-04-16T04:00:15.427Z,18.35
2023-04-16T04:02:53.475Z,13.80
2023-04-16T04:05:20.738Z,13.90
2023-04-16T04:07:49.002Z,10.38
2023-04-16T04:10:16.934Z,13.85
2023-04-16T04:12:44.320Z,15.73
2023-04-16T04:15:12.486Z,13.32
2023-04-16T04:17:39.362Z,10.68
2023-04-16T04:20:07.027Z,15.40
2023-04-16T04:22:33.987Z,16.25
2023-04-16T04:25:00.867Z,10.50
2023-04-16T04:27:30.515Z,14.60
2023-04-16T04:29:58.105Z,15.18
2023-04-16T04:32:25.209Z,19.27
2023-04-16T04:34:52.159Z,15.18
2023-04-16T04:37:19.038Z,17.05
2023-04-16T04:39:46.414Z,14.80
2023-04-16T04:42:13.251Z,11.93
2023-04-16T04:44:40.206Z,12.88
2023-04-16T04:47:08.392Z,12.73
2023-04-16T04:49:35.492Z,13.02
2023-04-16T04:52:03.169Z,10.15
2023-04-16T04:54:32.691Z,13.20
2023-04-16T04:57:00.161Z,16.02
2023-04-16T04:59:28.880Z,18.13
2023-04-16T05:01:55.926Z,10.48
2023-04-16T05:04:22.910Z,14.18
2023-04-16T05:06:49.835Z,13.32
2023-04-16T05:09:17.492Z,13.90
2023-04-16T05:11:44.390Z,13.52
2023-04-16T05:14:34.060Z,14.63
2023-04-16T05:17:01.158Z,11.98
2023-04-16T05:19:28.025Z,16.83
2023-04-16T05:21:55.037Z,14.27
2023-04-16T05:24:22.657Z,10.45
2023-04-16T05:26:49.499Z,11.52
2023-04-16T05:29:16.344Z,11.57
2023-04-16T05:31:43.273Z,12.05
2023-04-16T05:34:10.204Z,14.18
2023-04-16T05:36:37.022Z,14.75
2023-04-16T05:39:04.072Z,12.77
2023-04-16T05:41:31.016Z,12.00
2023-04-16T05:43:57.965Z,13.30
2023-04-16T05:46:24.916Z,12.73
2023-04-16T05:48:52.121Z,13.30
2023-04-16T05:51:19.054Z,14.30
2023-04-16T05:53:46.020Z,15.32
2023-04-16T05:56:12.958Z,13.90
2023-04-16T05:58:39.844Z,13.40
2023-04-16T06:01:07.676Z,14.95
2023-04-16T06:03:34.748Z,26.85
2023-04-16T06:06:01.862Z,15.48
2023-04-16T06:08:28.930Z,14.88
2023-04-16T06:10:56.700Z,17.63
2023-04-16T06:13:23.745Z,14.15
2023-04-16T06:15:50.789Z,14.35
2023-04-16T06:18:17.760Z,14.00
2023-04-16T06:20:44.741Z,12.02
2023-04-16T06:23:11.746Z,13.77
2023-04-16T06:25:38.704Z,13.43
2023-04-16T06:28:06.194Z,13.77
2023-04-16T06:30:33.687Z,13.25
2023-04-16T06:33:01.051Z,15.60
2023-04-16T06:35:28.329Z,17.05
2023-04-16T06:37:55.695Z,22.88
2023-04-16T06:40:22.916Z,18.48
2023-04-16T06:42:49.920Z,17.20
2023-04-16T06:45:16.999Z,22.23
2023-04-16T06:47:43.999Z,20.20
2023-04-16T06:50:11.293Z,18.35
2023-04-16T06:52:38.373Z,18.88
2023-04-16T06:55:07.312Z,22.33
2023-04-16T06:57:35.633Z,16.15
2023-04-16T07:00:05.274Z,17.48
2023-04-16T07:02:32.322Z,17.83
2023-04-16T07:04:59.480Z,17.90
2023-04-16T07:07:26.469Z,16.70
2023-04-16T07:09:53.439Z,17.65
2023-04-16T07:12:22.476Z,16.77
2023-04-16T07:14:49.998Z,16.83
2023-04-16T07:17:17.026Z,16.58
2023-04-16T07:19:44.495Z,16.85
2023-04-16T07:22:11.417Z,16.33
2023-04-16T07:24:38.372Z,16.90
2023-04-16T07:40:38.009Z,16.90
2023-04-16T07:43:05.028Z,17.30
2023-04-16T07:48:34.214Z,18.85
2023-04-16T07:51:01.171Z,18.10
2023-04-16T07:53:28.214Z,16.63
2023-04-16T07:55:55.263Z,17.98
2023-04-16T07:58:22.311Z,17.45
2023-04-16T08:00:50.858Z,17.85
2023-04-16T08:03:18.674Z,17.35
2023-04-16T08:05:45.793Z,18.00
2023-04-16T08:08:12.952Z,19.38
2023-04-16T08:10:39.949Z,18.15
2023-04-16T08:13:06.947Z,19.30
2023-04-16T08:15:34.023Z,18.55
2023-04-16T08:18:01.426Z,18.55
2023-04-16T08:20:28.897Z,18.77
2023-04-16T08:22:56.602Z,18.90
2023-04-16T08:25:24.834Z,19.48
2023-04-16T08:27:51.895Z,18.63
2023-04-16T08:30:19.095Z,20.27
2023-04-16T08:32:48.616Z,18.88
2023-04-16T08:35:17.062Z,18.67
2023-04-16T08:37:44.122Z,18.67
2023-04-16T08:40:11.585Z,17.92
2023-04-16T08:42:58.149Z,19.08
2023-04-16T08:45:27.263Z,18.73
2023-04-16T08:47:54.573Z,20.17
2023-04-16T08:50:26.751Z,18.73
2023-04-16T08:52:58.711Z,18.40
2023-04-16T08:55:37.708Z,23.17
2023-04-16T08:58:13.900Z,20.92
2023-04-16T09:00:43.758Z,19.65
2023-04-16T09:03:11.554Z,18.92
2023-04-16T09:05:39.405Z,20.00
2023-04-16T09:08:07.170Z,19.08
2023-04-16T09:10:35.096Z,20.02
2023-04-16T09:13:02.159Z,19.50
2023-04-16T09:15:29.638Z,20.05
2023-04-16T09:17:57.854Z,19.98
2023-04-16T09:20:25.114Z,19.27
2023-04-16T09:22:52.432Z,18.95
2023-04-16T09:25:22.811Z,19.45
2023-04-16T09:27:51.315Z,19.23
2023-04-16T09:30:22.342Z,18.95
2023-04-16T09:32:50.708Z,20.88
2023-04-16T09:35:20.946Z,21.58
2023-04-16T09:37:58.295Z,19.70
2023-04-16T09:40:30.588Z,19.15
2023-04-16T09:42:58.589Z,19.02
2023-04-16T09:45:25.710Z,19.25
2023-04-16T09:47:52.781Z,19.73
2023-04-16T09:50:20.688Z,18.90
2023-04-16T09:52:51.753Z,18.73
2023-04-16T09:55:24.189Z,18.60
2023-04-16T09:57:59.493Z,19.05
2023-04-16T10:00:26.626Z,18.58
2023-04-16T10:03:07.237Z,18.52
2023-04-16T10:05:34.895Z,17.90
2023-04-16T10:08:04.948Z,18.00
2023-04-16T10:10:32.807Z,17.80
2023-04-16T10:13:00.219Z,17.90
2023-04-16T10:15:27.960Z,18.80
2023-04-16T10:17:56.199Z,17.92
2023-04-16T10:20:24.250Z,17.67
2023-04-16T10:22:51.449Z,18.90
2023-04-16T10:25:18.833Z,18.13
2023-04-16T10:27:46.480Z,18.80
2023-04-16T10:30:15.680Z,17.35
2023-04-16T10:32:42.769Z,17.60
2023-04-16T10:35:09.795Z,18.23
2023-04-16T10:37:37.673Z,18.17
2023-04-16T10:40:23.628Z,17.92
2023-04-16T10:42:58.098Z,17.83
2023-04-16T10:45:32.989Z,18.05
2023-04-16T10:48:03.157Z,17.08
2023-04-16T10:50:37.307Z,16.70
2023-04-16T10:53:23.000Z,18.08
2023-04-16T10:56:05.831Z,16.58
2023-04-16T10:58:36.458Z,15.93
2023-04-16T11:01:13.871Z,16.08
2023-04-16T11:03:47.119Z,16.00
2023-04-16T11:06:24.039Z,15.80
2023-04-16T11:08:55.460Z,16.58
2023-04-16T11:11:23.499Z,16.17
2023-04-16T11:13:55.903Z,17.20
2023-04-16T11:16:24.768Z,16.58
2023-04-16T11:18:51.971Z,16.77
2023-04-16T11:21:20.676Z,18.00
2023-04-16T11:23:51.599Z,16.95
2023-04-16T11:26:28.171Z,17.80
2023-04-16T11:28:56.829Z,16.30
2023-04-16T11:31:24.824Z,15.90
2023-04-16T11:33:51.860Z,15.07
2023-04-16T11:36:19.009Z,15.88
2023-04-16T11:38:47.835Z,14.30
2023-04-16T11:41:20.056Z,14.00
2023-04-16T11:43:46.897Z,13.40
2023-04-16T11:46:26.378Z,13.63
2023-04-16T11:48:56.184Z,12.65
2023-04-16T11:51:23.862Z,12.48
2023-04-16T11:53:54.392Z,15.05
2023-04-16T11:56:33.411Z,11.77
2023-04-16T11:59:17.847Z,11.50
2023-04-16T12:04:18.914Z,11.13
2023-04-16T12:07:06.022Z,12.02
2023-04-16T12:09:37.037Z,11.98
2023-04-16T12:12:05.847Z,10.38
2023-04-16T12:14:33.248Z,13.57
2023-04-16T12:17:33.154Z,12.65
2023-04-16T12:20:03.846Z,10.60
2023-04-16T12:22:33.629Z,8.60
2023-04-16T12:25:04.319Z,11.57
2023-04-16T12:27:53.990Z,11.13
2023-04-16T12:30:23.433Z,10.73
2023-04-16T12:32:53.686Z,10.40
2023-04-16T12:35:34.405Z,11.77
2023-04-16T12:38:01.584Z,11.25
2023-04-16T12:40:28.648Z,11.35
2023-04-16T12:42:55.796Z,13.93
2023-04-16T12:45:22.936Z,10.18
2023-04-16T12:47:50.650Z,13.77
2023-04-16T12:50:18.193Z,12.10
2023-04-16T12:52:45.275Z,13.90
2023-04-16T12:55:14.164Z,17.25
2023-04-16T12:57:41.543Z,11.48
2023-04-16T13:00:10.838Z,12.32
2023-04-16T13:02:38.158Z,12.35
2023-04-16T13:05:05.644Z,10.38
2023-04-16T13:07:34.106Z,13.13
2023-04-16T13:10:01.236Z,13.48
2023-04-16T13:12:28.642Z,13.57
2023-04-16T13:14:56.037Z,15.88
2023-04-16T13:17:23.057Z,10.20
2023-04-16T13:19:50.063Z,10.52
2023-04-16T13:22:17.190Z,12.50
2023-04-16T13:24:44.219Z,13.32
2023-04-16T13:27:11.550Z,11.85
2023-04-16T13:29:38.679Z,15.25
2023-04-16T13:32:06.392Z,9.60
2023-04-16T13:34:33.552Z,14.52
2023-04-16T13:37:00.532Z,8.00
2023-04-16T13:39:27.541Z,13.57
2023-04-16T13:41:54.473Z,10.57
2023-04-16T13:44:21.884Z,12.48
2023-04-16T13:46:48.907Z,11.38
2023-04-16T13:49:16.354Z,13.68
2023-04-16T13:51:44.931Z,11.23
2023-04-16T13:54:12.105Z,11.55
2023-04-16T13:56:39.625Z,12.48
2023-04-16T13:59:06.780Z,14.15
2023-04-16T14:01:33.981Z,10.93
2023-04-16T14:04:06.435Z,11.85
2023-04-16T14:06:34.700Z,13.50
2023-04-16T14:09:02.154Z,11.98
2023-04-16T14:11:29.185Z,13.20
2023-04-16T14:13:56.344Z,13.65
2023-04-16T14:16:23.584Z,12.35
2023-04-16T14:18:52.093Z,11.32
2023-04-16T14:21:19.388Z,14.05
2023-04-16T14:23:46.845Z,11.90
2023-04-16T14:26:13.985Z,16.58
2023-04-16T14:28:41.284Z,12.68
2023-04-16T14:31:08.591Z,13.52
2023-04-16T14:33:35.640Z,15.98
2023-04-16T14:36:03.584Z,16.25
2023-04-16T14:38:31.397Z,16.30
2023-04-16T14:41:00.244Z,12.50
2023-04-16T14:43:27.447Z,15.48
2023-04-16T14:45:54.576Z,11.63
2023-04-16T14:48:22.192Z,17.15
2023-04-16T14:50:49.295Z,13.25
2023-04-16T14:53:16.451Z,12.40
2023-04-16T14:55:43.425Z,20.00
2023-04-16T14:58:10.898Z,15.85
2023-04-16T15:00:37.868Z,15.57
2023-04-16T15:03:05.837Z,19.25
2023-04-16T15:05:33.066Z,15.05
2023-04-16T15:08:00.752Z,15.63
2023-04-16T15:10:28.153Z,12.98
2023-04-16T15:12:55.056Z,14.43
2023-04-16T15:15:22.002Z,13.85
2023-04-16T15:17:50.510Z,20.45
2023-04-16T15:20:17.697Z,17.95
2023-04-16T15:22:44.584Z,14.00
2023-04-16T15:25:11.525Z,14.38
2023-04-16T15:27:38.582Z,12.88
2023-04-16T15:30:06.563Z,14.40
2023-04-16T15:32:33.469Z,18.88
2023-04-16T15:35:02.391Z,13.35
2023-04-16T15:37:29.376Z,14.80
2023-04-16T15:39:56.752Z,14.02
2023-04-16T15:42:24.790Z,13.07
2023-04-16T15:44:51.689Z,16.23
2023-04-16T15:47:18.696Z,15.93
2023-04-16T15:49:45.681Z,13.52
2023-04-16T15:52:12.569Z,15.10
2023-04-16T15:54:39.739Z,17.50
2023-04-16T15:57:06.636Z,17.38
2023-04-16T15:59:33.544Z,15.98
2023-04-16T16:02:01.197Z,19.15
2023-04-16T16:04:28.618Z,18.98
2023-04-16T16:06:56.539Z,23.85
2023-04-16T16:09:26.896Z,15.27
2023-04-16T16:11:54.563Z,17.25
2023-04-16T16:14:22.306Z,15.90
2023-04-16T16:16:49.491Z,17.33
2023-04-16T16:19:16.706Z,17.45
2023-04-16T16:21:43.596Z,22.58
2023-04-16T16:24:10.552Z,18.20
2023-04-16T16:26:37.696Z,19.55
2023-04-16T16:29:05.022Z,23.73
2023-04-16T16:31:31.949Z,19.50
2023-04-16T16:33:58.899Z,20.50
2023-04-16T16:36:26.629Z,19.60
2023-04-16T16:38:53.685Z,19.17
2023-04-16T16:41:20.688Z,20.02
2023-04-16T16:43:47.577Z,18.48
2023-04-16T16:46:14.699Z,22.42
2023-04-16T16:48:41.514Z,25.58
2023-04-16T16:51:11.480Z,19.25
2023-04-16T16:53:38.446Z,17.63
2023-04-16T16:56:05.827Z,19.70
2023-04-16T16:58:32.670Z,20.20
2023-04-16T17:00:59.948Z,22.10
2023-04-16T17:03:27.091Z,19.80
2023-04-16T17:05:54.245Z,17.75
2023-04-16T17:08:21.366Z,23.23
2023-04-16T17:10:48.392Z,24.65
2023-04-16T17:13:19.767Z,24.48
2023-04-16T17:15:47.069Z,21.92
2023-04-16T17:18:14.028Z,27.98
2023-04-16T17:20:41.176Z,22.23
2023-04-16T17:23:08.234Z,26.45
2023-04-16T17:25:35.232Z,21.90
2023-04-16T17:28:02.931Z,27.50
2023-04-16T17:30:32.141Z,29.17
2023-04-16T17:32:59.220Z,21.50
2023-04-16T17:35:26.242Z,25.85
2023-04-16T17:37:53.111Z,23.55
2023-04-16T17:40:19.948Z,28.92
2023-04-16T17:42:48.907Z,26.80
2023-04-16T17:45:16.377Z,28.55
2023-04-16T17:47:44.513Z,35.25
2023-04-16T17:50:12.117Z,30.65
2023-04-16T17:52:39.132Z,23.45
2023-04-16T17:55:14.460Z,21.27
2023-04-16T17:57:42.078Z,25.83
2023-04-16T18:00:11.583Z,27.65
2023-04-16T18:02:40.910Z,26.88
2023-04-16T18:05:09.135Z,24.65
2023-04-16T18:07:36.593Z,28.92
2023-04-16T18:10:03.695Z,25.55
2023-04-16T18:12:31.133Z,25.10
2023-04-16T18:14:58.087Z,23.35
2023-04-16T18:17:25.174Z,31.80
2023-04-16T18:19:52.145Z,28.77
2023-04-16T18:22:18.976Z,25.02
2023-04-16T18:24:45.990Z,31.60
2023-04-16T18:27:12.925Z,28.98
2023-04-16T18:29:40.563Z,28.42
2023-04-16T18:32:09.920Z,25.33
2023-04-16T18:34:38.805Z,30.65
2023-04-16T18:37:06.924Z,22.65
2023-04-16T18:39:34.219Z,28.83
2023-04-16T18:42:01.714Z,28.10
2023-04-16T18:44:28.558Z,26.65
2023-04-16T18:46:55.755Z,27.52
2023-04-16T18:49:22.735Z,29.13
2023-04-16T18:51:49.973Z,30.00
2023-04-16T18:54:16.960Z,32.90
2023-04-16T18:56:44.151Z,31.42
2023-04-16T18:59:11.570Z,35.47
2023-04-16T19:01:38.780Z,33.25
2023-04-16T19:04:05.880Z,32.63
2023-04-16T19:06:33.120Z,31.00
2023-04-16T19:09:00.089Z,29.25
2023-04-16T19:11:27.464Z,24.58
2023-04-16T19:13:54.572Z,28.98
2023-04-16T19:16:21.512Z,34.22
2023-04-16T19:18:48.433Z,24.40
2023-04-16T19:21:15.684Z,23.42
2023-04-16T19:23:42.867Z,29.80
2023-04-16T19:26:09.754Z,26.67
2023-04-16T19:41:59.936Z,34.13
2023-04-16T19:44:27.777Z,29.88
2023-04-16T19:46:54.737Z,31.67
2023-04-16T19:49:21.700Z,36.13
2023-04-16T19:51:48.612Z,42.05
2023-04-16T19:54:15.646Z,30.73
2023-04-16T19:56:42.534Z,22.42
2023-04-16T19:59:09.812Z,26.15
2023-04-16T20:01:36.934Z,24.05
2023-04-16T20:04:04.023Z,20.58
2023-04-16T20:06:31.258Z,29.85
2023-04-16T20:08:58.125Z,28.90
2023-04-16T20:11:25.070Z,29.90
2023-04-16T20:13:51.986Z,28.48
2023-04-16T20:16:23.974Z,26.88
2023-04-16T20:18:54.434Z,29.20
2023-04-16T20:21:21.826Z,30.05
2023-04-16T20:23:48.831Z,31.00
2023-04-16T20:26:19.458Z,28.75
2023-04-16T20:28:46.436Z,27.08
2023-04-16T20:31:13.313Z,27.85
2023-04-16T20:33:40.778Z,31.13
2023-04-16T20:36:07.753Z,23.92
2023-04-16T20:38:35.814Z,25.77
2023-04-16T20:41:12.793Z,32.17
2023-04-16T20:43:44.120Z,27.92
2023-04-16T20:46:12.292Z,27.13
2023-04-16T20:48:39.407Z,27.50
2023-04-16T20:51:07.841Z,26.10
2023-04-16T20:53:35.232Z,26.52
2023-04-16T20:56:02.132Z,34.50
2023-04-16T20:58:29.676Z,25.92
2023-04-16T21:00:58.029Z,30.67
2023-04-16T21:03:25.251Z,31.55
2023-04-16T21:05:53.667Z,32.33
2023-04-16T21:08:21.833Z,34.35
2023-04-16T21:10:49.310Z,29.88
2023-04-16T21:13:16.433Z,33.97
2023-04-16T21:15:45.650Z,27.50
2023-04-16T21:18:12.919Z,34.42
2023-04-16T21:20:40.282Z,29.60
2023-04-16T21:23:07.176Z,34.03
2023-04-16T21:25:34.144Z,35.47
2023-04-16T21:28:01.143Z,25.23
2023-04-16T21:30:28.027Z,22.98
2023-04-16T21:32:55.171Z,21.85
2023-04-16T21:35:22.268Z,25.80
2023-04-16T21:37:49.134Z,39.63
2023-04-16T21:40:16.272Z,24.33
2023-04-16T21:42:43.165Z,27.27
2023-04-16T21:45:10.559Z,22.80
2023-04-16T21:47:38.279Z,25.50
2023-04-16T21:50:06.073Z,24.70
2023-04-16T21:52:33.240Z,20.00
2023-04-16T21:55:00.548Z,21.40
2023-04-16T21:57:27.591Z,22.33
2023-04-16T21:59:54.471Z,22.88
2023-04-16T22:02:21.975Z,19.48
2023-04-16T22:04:49.136Z,19.23
2023-04-16T22:07:17.122Z,15.77
2023-04-16T22:09:44.264Z,18.73
2023-04-16T22:12:11.260Z,21.98
2023-04-16T22:14:43.981Z,17.48
2023-04-16T22:17:13.335Z,20.67
2023-04-16T22:19:40.251Z,11.13
2023-04-16T22:22:07.253Z,15.23
2023-04-16T22:24:34.188Z,15.63
2023-04-16T22:27:02.420Z,13.02
2023-04-16T22:29:29.426Z,15.85
2023-04-16T22:31:56.485Z,11.88
2023-04-16T22:34:23.486Z,11.02
2023-04-16T22:36:50.380Z,9.52
2023-04-16T22:39:17.311Z,9.00
2023-04-16T22:41:46.675Z,9.82
2023-04-16T22:44:13.668Z,12.90
2023-04-16T22:46:40.886Z,11.27
2023-04-16T22:49:07.792Z,11.75
2023-04-16T22:51:35.341Z,12.30
2023-04-16T22:54:02.402Z,11.18
2023-04-16T22:56:31.178Z,11.45
2023-04-16T22:58:58.075Z,12.77
2023-04-16T23:01:25.253Z,11.30
2023-04-16T23:03:52.858Z,11.30
2023-04-16T23:06:19.845Z,11.73
2023-04-16T23:08:47.016Z,13.30
2023-04-16T23:11:14.125Z,9.48
2023-04-16T23:13:42.829Z,11.32
2023-04-16T23:16:09.796Z,12.13
2023-04-16T23:18:36.968Z,10.13
2023-04-16T23:21:04.054Z,10.60
2023-04-16T23:23:31.301Z,15.88
2023-04-16T23:25:58.694Z,12.05
2023-04-16T23:28:25.911Z,13.68
2023-04-16T23:30:53.107Z,11.75
2023-04-16T23:33:20.340Z,15.07
2023-04-16T23:35:47.918Z,11.52
2023-04-16T23:38:15.424Z,12.52
2023-04-16T23:40:42.486Z,11.40
2023-04-16T23:43:09.756Z,11.32
2023-04-16T23:45:37.800Z,10.15
2023-04-16T23:48:04.900Z,13.52
2023-04-16T23:50:32.370Z,9.23
2023-04-16T23:52:59.407Z,11.90
2023-04-16T23:55:26.301Z,10.57
2023-04-16T23:57:53.453Z,7.88
